Time;durP1;ratioP1;P1;durP2;ratioP2;P2;SDS_P1;SDS_P2;PMS_P1;PMS_P2;Temp;Humidity;BMP_temperature;BMP_pressure;BME280_temperature;BME280_humidity;BME280_pressure;Samples;Min_cycle;Max_cycle;Signal;HPM_P1;HPM_P2
2023/03/10 00:00:45;;;;;;;4.83;1.63;;;11.50;99.90;;;;;;5057958;28;20665;-90
2023/03/10 00:03:10;;;;;;;3.40;1.30;;;11.50;99.90;;;;;;5056816;28;20173;-90
2023/03/10 00:05:37;;;;;;;3.90;1.80;;;11.60;99.90;;;;;;5056422;28;20169;-89
2023/03/10 00:08:04;;;;;;;3.40;1.53;;;11.60;99.90;;;;;;5057548;28;20579;-89
2023/03/10 00:10:30;;;;;;;6.17;1.83;;;11.40;99.90;;;;;;5057641;28;20184;-90
2023/03/10 00:12:57;;;;;;;4.10;1.87;;;11.60;99.90;;;;;;5061072;28;20166;-89
2023/03/10 00:15:24;;;;;;;3.67;1.50;;;11.60;99.90;;;;;;5041418;28;20240;-90
2023/03/10 00:17:51;;;;;;;4.20;1.60;;;11.60;99.90;;;;;;5063273;28;20204;-89
2023/03/10 00:20:16;;;;;;;5.60;1.90;;;11.70;99.90;;;;;;5062648;28;20184;-89
2023/03/10 00:22:44;;;;;;;3.80;1.83;;;11.60;99.90;;;;;;5057597;28;20535;-90
2023/03/10 00:25:10;;;;;;;3.83;1.70;;;11.70;99.90;;;;;;5059425;28;20158;-90
2023/03/10 00:27:35;;;;;;;3.43;1.83;;;11.80;99.90;;;;;;5041783;28;20695;-88
2023/03/10 00:30:02;;;;;;;4.60;2.03;;;11.80;99.90;;;;;;5057298;28;20180;-89
2023/03/10 00:32:27;;;;;;;4.13;1.93;;;11.70;99.90;;;;;;5057979;28;20177;-89
2023/03/10 00:34:53;;;;;;;4.00;1.93;;;11.80;99.90;;;;;;5056779;28;20295;-88
2023/03/10 00:37:19;;;;;;;5.87;2.10;;;11.80;99.90;;;;;;5055071;28;20165;-88
2023/03/10 00:39:49;;;;;;;5.70;2.27;;;11.70;99.90;;;;;;5055541;28;20173;-90
2023/03/10 00:42:15;;;;;;;5.80;2.63;;;11.80;99.90;;;;;;5055686;28;20566;-90
2023/03/10 00:44:43;;;;;;;5.63;2.40;;;11.90;99.90;;;;;;5055366;28;20227;-89
2023/03/10 00:47:09;;;;;;;5.43;2.43;;;11.80;99.90;;;;;;5056611;28;20170;-89
2023/03/10 00:49:34;;;;;;;5.17;2.80;;;11.90;99.90;;;;;;5073155;28;20177;-89
2023/03/10 00:52:02;;;;;;;5.83;3.07;;;11.70;99.90;;;;;;5072607;28;20187;-87
2023/03/10 00:54:29;;;;;;;4.40;2.13;;;11.70;99.90;;;;;;5071504;28;20231;-88
2023/03/10 00:56:54;;;;;;;6.07;2.40;;;11.60;99.90;;;;;;5069096;28;20180;-88
2023/03/10 00:59:20;;;;;;;10.20;2.90;;;11.80;99.90;;;;;;5069802;28;20648;-88
2023/03/10 01:01:46;;;;;;;6.57;2.63;;;11.50;99.90;;;;;;5053708;28;20204;-87
2023/03/10 01:04:15;;;;;;;6.70;2.50;;;11.60;99.90;;;;;;5075541;28;20185;-86
2023/03/10 01:06:43;;;;;;;8.37;2.73;;;11.70;99.90;;;;;;5076605;28;20161;-86
2023/03/10 01:09:09;;;;;;;8.13;2.30;;;11.80;99.90;;;;;;5070771;28;20172;-89
2023/03/10 01:11:36;;;;;;;8.33;2.67;;;11.70;99.90;;;;;;5063144;28;20177;-90
2023/03/10 01:14:05;;;;;;;7.03;2.33;;;11.70;99.90;;;;;;5073487;28;20176;-88
2023/03/10 01:16:34;;;;;;;6.23;2.03;;;11.70;99.90;;;;;;5077401;28;20177;-89
2023/03/10 01:19:00;;;;;;;6.53;2.50;;;11.70;99.90;;;;;;5065532;28;20165;-89
2023/03/10 01:21:33;;;;;;;8.33;2.50;;;11.70;99.90;;;;;;5061958;28;20180;-89
2023/03/10 01:23:59;;;;;;;6.47;2.80;;;11.80;99.90;;;;;;5057910;28;20543;-88
2023/03/10 01:26:29;;;;;;;9.70;2.40;;;11.90;99.90;;;;;;5056986;28;20188;-89
2023/03/10 01:28:59;;;;;;;11.53;2.80;;;11.70;99.90;;;;;;5055519;28;20173;-90
2023/03/10 01:31:24;;;;;;;8.53;2.03;;;11.70;99.90;;;;;;5057571;28;20196;-90
2023/03/10 01:33:50;;;;;;;8.67;2.33;;;11.70;99.90;;;;;;5057500;28;20184;-89
2023/03/10 01:36:21;;;;;;;7.77;2.57;;;11.70;99.90;;;;;;5074194;28;20197;-89
2023/03/10 01:38:55;;;;;;;8.53;2.60;;;11.70;99.90;;;;;;5068264;28;20174;-88
2023/03/10 01:41:21;;;;;;;8.00;1.90;;;11.60;99.90;;;;;;5068428;28;20157;-89
2023/03/10 01:43:52;;;;;;;5.47;1.90;;;11.60;99.90;;;;;;5076856;28;20181;-88
2023/03/10 01:46:36;;;;;;;9.07;2.17;;;11.70;99.90;;;;;;5076957;28;20172;-89
2023/03/10 01:49:14;;;;;;;9.27;1.80;;;11.80;99.90;;;;;;5076911;28;20185;-88
2023/03/10 01:51:43;;;;;;;8.73;2.07;;;11.70;99.90;;;;;;5076882;28;20199;-88
2023/03/10 01:54:15;;;;;;;10.03;2.23;;;11.70;99.90;;;;;;5050033;28;20184;-91
2023/03/10 01:57:05;;;;;;;9.00;2.33;;;11.70;99.90;;;;;;5058574;28;20169;-89
2023/03/10 01:59:35;;;;;;;7.37;2.20;;;11.50;99.90;;;;;;5054174;28;20172;-88
2023/03/10 02:02:01;;;;;;;7.37;1.73;;;11.50;99.90;;;;;;5060518;28;20208;-89
2023/03/10 02:04:35;;;;;;;8.53;2.43;;;11.50;99.90;;;;;;5058684;28;20226;-88
2023/03/10 02:07:04;;;;;;;7.77;2.17;;;11.50;99.90;;;;;;5055161;28;20169;-87
2023/03/10 02:09:33;;;;;;;9.70;2.40;;;11.50;99.90;;;;;;5040919;28;20180;-88
2023/03/10 02:12:00;;;;;;;10.07;2.53;;;11.40;99.90;;;;;;5058220;28;20174;-87
2023/03/10 02:14:26;;;;;;;8.63;2.20;;;11.50;99.90;;;;;;5057454;28;20264;-88
2023/03/10 02:16:52;;;;;;;9.60;2.50;;;11.50;99.90;;;;;;5057116;28;20217;-88
2023/03/10 02:19:34;;;;;;;7.93;2.47;;;11.50;99.90;;;;;;5057583;28;20226;-88
2023/03/10 02:22:06;;;;;;;7.03;2.30;;;11.40;99.90;;;;;;5057396;28;20179;-88
2023/03/10 02:25:02;;;;;;;9.07;2.20;;;11.40;99.90;;;;;;5057119;28;20244;-89
2023/03/10 02:27:36;;;;;;;10.53;2.40;;;11.40;99.90;;;;;;5053068;28;20272;-90
2023/03/10 02:30:07;;;;;;;9.17;2.00;;;11.40;99.90;;;;;;5042944;28;20173;-89
2023/03/10 02:32:40;;;;;;;8.63;2.17;;;11.40;99.90;;;;;;5062269;28;20181;-89
2023/03/10 02:35:07;;;;;;;8.73;2.47;;;11.40;99.90;;;;;;5062098;28;20212;-89
2023/03/10 02:37:34;;;;;;;8.73;2.67;;;11.40;99.90;;;;;;5057850;28;20630;-90
2023/03/10 02:40:00;;;;;;;10.67;2.70;;;11.40;99.90;;;;;;5057045;28;20168;-89
2023/03/10 02:42:31;;;;;;;13.90;2.40;;;11.40;99.90;;;;;;5058531;28;20507;-89
2023/03/10 02:44:57;;;;;;;10.97;3.10;;;11.30;99.90;;;;;;5056588;28;20172;-87
2023/03/10 02:47:23;;;;;;;12.50;2.93;;;11.40;99.90;;;;;;5056886;28;20172;-89
2023/03/10 02:49:49;;;;;;;14.23;3.40;;;11.50;99.90;;;;;;5056739;28;20315;-89
2023/03/10 02:52:38;;;;;;;15.27;3.47;;;11.30;99.90;;;;;;5068367;28;20165;-87
2023/03/10 02:55:17;;;;;;;10.27;3.47;;;11.30;99.90;;;;;;5068713;28;20216;-89
2023/03/10 02:57:42;;;;;;;10.97;3.30;;;11.30;99.90;;;;;;5057287;28;20173;-88
2023/03/10 03:00:11;;;;;;;14.90;3.70;;;11.40;99.90;;;;;;5056182;28;20307;-89
2023/03/10 03:02:37;;;;;;;11.97;3.63;;;11.30;99.90;;;;;;5057813;28;20641;-87
2023/03/10 03:05:04;;;;;;;11.20;3.10;;;11.30;99.90;;;;;;5062139;28;20184;-88
2023/03/10 03:07:30;;;;;;;13.53;3.47;;;11.30;99.90;;;;;;5072987;28;20233;-89
2023/03/10 03:09:56;;;;;;;13.77;3.63;;;11.30;99.90;;;;;;5064073;28;20184;-88
2023/03/10 03:12:22;;;;;;;13.40;3.57;;;11.30;99.90;;;;;;5057196;28;20223;-87
2023/03/10 03:14:48;;;;;;;14.03;3.50;;;11.30;99.90;;;;;;5056988;28;20208;-88
2023/03/10 03:17:13;;;;;;;13.77;3.17;;;11.30;99.90;;;;;;5056617;28;20531;-89
2023/03/10 03:19:39;;;;;;;13.43;3.13;;;11.40;99.90;;;;;;5055634;28;20169;-90
2023/03/10 03:22:05;;;;;;;13.67;3.57;;;11.30;99.90;;;;;;5061453;28;20188;-88
2023/03/10 03:24:31;;;;;;;16.87;3.47;;;11.30;99.90;;;;;;5069392;28;20173;-89
2023/03/10 03:26:57;;;;;;;10.17;3.27;;;11.30;99.90;;;;;;5056838;28;20173;-90
2023/03/10 03:29:23;;;;;;;11.43;3.13;;;11.30;99.90;;;;;;5056034;28;20173;-89
2023/03/10 03:31:49;;;;;;;12.97;2.87;;;11.30;99.90;;;;;;5056798;28;20264;-87
2023/03/10 03:34:14;;;;;;;11.30;3.27;;;11.20;99.90;;;;;;5056396;28;20280;-90
2023/03/10 03:36:44;;;;;;;11.73;2.80;;;11.30;99.90;;;;;;5039783;28;20184;-88
2023/03/10 03:39:12;;;;;;;8.90;2.37;;;11.30;99.90;;;;;;5039722;28;20656;-88
2023/03/10 03:41:37;;;;;;;12.13;3.07;;;11.40;99.90;;;;;;5055838;28;20263;-89
2023/03/10 03:44:03;;;;;;;10.50;2.80;;;11.30;99.90;;;;;;5055943;28;20708;-88
2023/03/10 03:46:29;;;;;;;15.07;3.13;;;11.20;99.90;;;;;;5056181;28;20181;-88
2023/03/10 03:48:55;;;;;;;10.70;2.87;;;11.30;99.90;;;;;;5055149;28;20791;-88
2023/03/10 03:51:20;;;;;;;7.70;2.50;;;11.20;99.90;;;;;;5054298;28;20177;-87
2023/03/10 03:53:46;;;;;;;10.33;2.30;;;11.20;99.90;;;;;;5054867;28;20183;-88
2023/03/10 03:56:12;;;;;;;7.80;2.00;;;11.20;99.90;;;;;;5064520;28;20243;-86
2023/03/10 03:58:39;;;;;;;7.10;2.17;;;11.20;99.90;;;;;;5063676;28;20185;-86
2023/03/10 04:01:05;;;;;;;8.13;2.13;;;11.20;99.90;;;;;;5062037;28;20208;-88
2023/03/10 04:03:31;;;;;;;6.10;1.70;;;11.10;99.90;;;;;;5056444;28;20633;-88
2023/03/10 04:05:57;;;;;;;7.40;1.90;;;11.20;99.90;;;;;;5056540;28;20188;-87
2023/03/10 04:08:23;;;;;;;6.80;1.63;;;11.20;99.90;;;;;;5068768;28;20192;-87
2023/03/10 04:10:50;;;;;;;7.70;1.87;;;11.20;99.90;;;;;;5072113;28;20637;-89
2023/03/10 04:13:16;;;;;;;4.83;1.63;;;11.20;99.90;;;;;;5070890;28;20189;-89
2023/03/10 04:15:41;;;;;;;6.80;2.13;;;11.30;99.90;;;;;;5073966;28;20231;-87
2023/03/10 04:18:09;;;;;;;6.73;1.80;;;11.30;99.90;;;;;;5073713;28;20169;-87
2023/03/10 04:20:36;;;;;;;7.10;1.70;;;11.20;99.90;;;;;;5077262;28;20161;-87
2023/03/10 04:23:03;;;;;;;8.17;2.10;;;11.20;99.90;;;;;;5077609;28;20149;-88
2023/03/10 04:25:32;;;;;;;9.40;1.83;;;11.10;99.90;;;;;;5060747;28;20186;-90
2023/03/10 04:28:01;;;;;;;10.53;2.03;;;11.20;99.90;;;;;;5058364;28;20203;-89
2023/03/10 04:30:28;;;;;;;9.20;2.17;;;11.00;99.90;;;;;;5056678;28;20591;-89
2023/03/10 04:33:00;;;;;;;8.53;1.97;;;11.00;99.90;;;;;;5055270;28;20185;-89
2023/03/10 04:35:27;;;;;;;8.30;2.07;;;11.00;99.90;;;;;;5056288;28;20204;-89
2023/03/10 04:37:53;;;;;;;7.63;1.60;;;10.90;99.90;;;;;;5056364;28;20169;-88
2023/03/10 04:40:19;;;;;;;8.40;1.90;;;10.90;99.90;;;;;;5066465;28;20173;-86
2023/03/10 04:42:45;;;;;;;4.53;1.60;;;10.80;99.90;;;;;;5075112;28;20157;-86
2023/03/10 04:45:11;;;;;;;8.53;1.77;;;10.70;99.90;;;;;;5077807;28;20176;-88
2023/03/10 04:47:38;;;;;;;6.63;1.80;;;10.70;99.90;;;;;;5072796;28;20165;-87
2023/03/10 04:50:05;;;;;;;5.60;1.63;;;10.70;99.90;;;;;;5070664;28;20272;-88
2023/03/10 04:52:33;;;;;;;8.20;1.90;;;10.70;99.90;;;;;;5057115;28;20173;-89
2023/03/10 04:54:59;;;;;;;8.37;1.73;;;10.80;99.90;;;;;;5056968;28;20342;-88
2023/03/10 04:57:26;;;;;;;7.53;1.90;;;10.80;99.90;;;;;;5055995;28;20628;-88
2023/03/10 04:59:51;;;;;;;10.27;2.07;;;10.80;99.90;;;;;;5054837;28;20170;-88
2023/03/10 05:02:17;;;;;;;7.20;2.10;;;10.80;99.90;;;;;;5055731;28;20196;-88
2023/03/10 05:04:43;;;;;;;10.27;2.20;;;10.70;99.90;;;;;;5054720;28;20394;-89
2023/03/10 05:07:09;;;;;;;10.47;2.17;;;10.70;99.90;;;;;;5055276;28;20169;-88
2023/03/10 05:09:36;;;;;;;6.93;2.33;;;10.80;99.90;;;;;;5054514;28;20192;-89
2023/03/10 05:12:05;;;;;;;5.80;1.90;;;10.80;99.90;;;;;;5055418;28;20169;-89
2023/03/10 05:14:31;;;;;;;8.63;2.53;;;10.80;99.90;;;;;;5054520;28;20698;-90
2023/03/10 05:16:56;;;;;;;7.07;1.90;;;10.80;99.90;;;;;;5055332;28;20228;-88
2023/03/10 05:19:22;;;;;;;9.50;2.07;;;10.70;99.90;;;;;;5053422;28;20173;-90
2023/03/10 05:21:48;;;;;;;8.17;1.90;;;10.80;99.90;;;;;;5054568;28;20180;-89
2023/03/10 05:24:13;;;;;;;9.53;1.97;;;10.70;99.90;;;;;;5038123;28;20642;-88
2023/03/10 05:26:41;;;;;;;7.47;2.97;;;10.70;99.90;;;;;;5055096;28;20162;-87
2023/03/10 05:29:09;;;;;;;8.83;2.17;;;10.70;99.90;;;;;;5056610;28;20237;-88
2023/03/10 05:31:35;;;;;;;8.77;1.97;;;10.60;99.90;;;;;;5044196;28;20319;-90
2023/03/10 05:34:01;;;;;;;7.47;2.27;;;10.60;99.90;;;;;;5040272;28;20205;-90
2023/03/10 05:36:29;;;;;;;11.03;2.67;;;10.60;99.90;;;;;;5035237;28;20704;-89
2023/03/10 05:38:58;;;;;;;10.37;2.47;;;10.70;99.90;;;;;;5034960;28;20173;-89
2023/03/10 05:41:23;;;;;;;7.07;2.33;;;10.60;99.90;;;;;;5034248;28;20272;-88
2023/03/10 05:43:49;;;;;;;10.60;2.63;;;10.60;99.90;;;;;;5034379;28;20267;-88
2023/03/10 05:46:16;;;;;;;8.47;2.43;;;10.60;99.90;;;;;;5039764;28;20582;-86
2023/03/10 05:48:41;;;;;;;11.73;2.57;;;10.60;99.90;;;;;;5046564;28;20197;-88
2023/03/10 05:51:10;;;;;;;6.67;2.20;;;10.90;99.90;;;;;;5055398;28;20190;-87
2023/03/10 05:53:38;;;;;;;8.67;2.50;;;10.70;99.90;;;;;;5054500;28;20177;-89
2023/03/10 05:56:08;;;;;;;11.37;2.90;;;10.80;99.90;;;;;;5055791;28;20221;-87
2023/03/10 05:58:35;;;;;;;9.93;2.73;;;10.70;99.90;;;;;;5057333;28;20153;-86
2023/03/10 06:01:02;;;;;;;7.93;2.73;;;10.70;99.90;;;;;;5048081;28;20241;-88
2023/03/10 06:03:29;;;;;;;9.93;2.30;;;10.60;99.90;;;;;;5045865;28;20185;-88
2023/03/10 06:05:56;;;;;;;10.90;2.40;;;10.60;99.90;;;;;;5046865;28;20174;-89
2023/03/10 06:08:23;;;;;;;12.53;2.87;;;10.60;99.90;;;;;;5035757;28;20212;-89
2023/03/10 06:10:52;;;;;;;10.07;3.00;;;10.60;99.90;;;;;;5036289;28;20182;-89
2023/03/10 06:13:19;;;;;;;12.63;3.00;;;10.60;99.90;;;;;;5037037;28;20627;-89
2023/03/10 06:16:00;;;;;;;10.57;2.60;;;10.70;99.90;;;;;;5036295;28;20316;-89
2023/03/10 06:18:27;;;;;;;10.73;2.87;;;10.60;99.90;;;;;;5018633;28;20177;-90
2023/03/10 06:20:55;;;;;;;5.97;2.30;;;10.60;99.90;;;;;;5034425;28;20212;-88
2023/03/10 06:23:21;;;;;;;10.90;3.07;;;10.50;99.90;;;;;;5033471;28;20174;-89
2023/03/10 06:25:59;;;;;;;8.47;2.57;;;10.50;99.90;;;;;;5033748;28;20618;-90
2023/03/10 06:28:31;;;;;;;9.70;2.73;;;10.60;99.90;;;;;;5043938;28;20219;-88
2023/03/10 06:30:59;;;;;;;12.97;3.50;;;10.50;99.90;;;;;;5055940;28;20176;-87
2023/03/10 06:33:27;;;;;;;11.20;2.73;;;10.50;99.90;;;;;;5039380;28;20213;-88
2023/03/10 06:35:53;;;;;;;12.37;3.20;;;10.60;99.90;;;;;;5053149;28;20225;-88
2023/03/10 06:38:20;;;;;;;14.00;3.37;;;10.70;99.90;;;;;;5050081;28;20181;-88
2023/03/10 06:40:45;;;;;;;11.90;3.00;;;10.60;99.90;;;;;;5039947;28;20182;-88
2023/03/10 06:43:12;;;;;;;12.33;3.43;;;10.70;99.90;;;;;;5050389;28;20196;-87
2023/03/10 06:45:43;;;;;;;10.43;3.17;;;10.70;99.90;;;;;;5037577;28;20264;-88
2023/03/10 06:48:31;;;;;;;12.50;3.33;;;10.70;99.90;;;;;;5036464;28;20538;-90
2023/03/10 06:50:59;;;;;;;9.17;2.50;;;10.80;99.90;;;;;;5033728;28;20261;-89
2023/03/10 06:53:26;;;;;;;11.03;2.90;;;10.90;99.90;;;;;;5033785;28;20181;-87
2023/03/10 06:56:18;;;;;;;10.37;2.93;;;10.80;99.90;;;;;;5036564;28;20669;-87
2023/03/10 06:58:44;;;;;;;11.40;3.53;;;10.80;99.90;;;;;;5021147;28;20177;-89
2023/03/10 07:01:24;;;;;;;14.23;2.80;;;10.80;99.90;;;;;;5037551;28;20236;-90
2023/03/10 07:03:50;;;;;;;9.83;2.70;;;10.90;99.90;;;;;;5038854;28;20641;-88
2023/03/10 07:06:17;;;;;;;12.27;3.30;;;10.90;99.90;;;;;;5040255;28;20181;-90
2023/03/10 07:08:43;;;;;;;9.60;3.13;;;10.90;99.90;;;;;;5047161;28;20169;-90
2023/03/10 07:11:09;;;;;;;9.83;2.67;;;11.00;99.90;;;;;;5048500;28;20188;-91
2023/03/10 07:13:37;;;;;;;12.20;3.00;;;10.90;99.90;;;;;;5054822;28;20257;-89
2023/03/10 07:16:04;;;;;;;11.33;3.10;;;10.90;99.90;;;;;;5031220;28;20316;-91
2023/03/10 07:18:29;;;;;;;11.13;2.93;;;10.80;99.90;;;;;;5054605;28;20185;-92
2023/03/10 07:20:55;;;;;;;12.50;3.40;;;10.80;99.90;;;;;;5058446;28;20183;-89
2023/03/10 07:23:22;;;;;;;15.10;3.37;;;10.80;99.90;;;;;;5058836;28;20360;-89
2023/03/10 07:25:53;;;;;;;10.93;2.90;;;10.80;99.90;;;;;;5059396;28;20261;-88
2023/03/10 07:28:19;;;;;;;9.60;2.93;;;10.90;99.90;;;;;;5055294;28;20182;-89
2023/03/10 07:30:44;;;;;;;10.43;3.37;;;10.70;99.90;;;;;;5053779;28;20205;-90
2023/03/10 07:33:10;;;;;;;14.50;3.13;;;10.80;99.90;;;;;;5053670;28;20228;-89
2023/03/10 07:35:37;;;;;;;13.53;3.30;;;10.80;99.90;;;;;;5055514;28;20217;-87
2023/03/10 07:38:03;;;;;;;15.80;4.03;;;10.70;99.90;;;;;;5068990;28;20168;-87
2023/03/10 07:40:29;;;;;;;10.90;3.90;;;10.60;99.90;;;;;;5067523;28;20181;-87
2023/03/10 07:42:55;;;;;;;14.27;4.00;;;10.60;99.90;;;;;;5071590;28;20174;-88
2023/03/10 07:45:25;;;;;;;9.90;3.57;;;10.60;99.90;;;;;;5056427;28;20185;-90
2023/03/10 07:47:52;;;;;;;12.07;4.27;;;10.50;99.90;;;;;;5039555;28;20174;-88
2023/03/10 07:50:20;;;;;;;11.73;3.47;;;10.50;99.90;;;;;;5053801;28;20197;-88
2023/03/10 07:52:47;;;;;;;10.90;3.90;;;10.50;99.90;;;;;;5041012;28;20177;-89
2023/03/10 07:55:16;;;;;;;12.03;3.80;;;10.40;99.90;;;;;;5051215;28;20197;-87
2023/03/10 07:57:44;;;;;;;12.33;3.90;;;10.40;99.90;;;;;;5058990;28;20218;-87
2023/03/10 08:00:11;;;;;;;14.13;4.47;;;10.30;99.90;;;;;;5073731;28;20205;-90
2023/03/10 08:02:38;;;;;;;13.50;4.17;;;10.30;99.90;;;;;;5070047;28;20174;-89
2023/03/10 08:05:05;;;;;;;12.83;3.73;;;10.30;99.90;;;;;;5055312;28;20191;-90
2023/03/10 08:07:32;;;;;;;12.27;3.67;;;10.40;99.90;;;;;;5050652;28;20189;-92
2023/03/10 08:09:58;;;;;;;12.27;3.87;;;10.40;99.90;;;;;;5056672;28;20207;-93
2023/03/10 08:12:25;;;;;;;13.30;3.30;;;10.40;99.90;;;;;;5062163;28;20177;-91
2023/03/10 08:14:51;;;;;;;7.13;2.90;;;10.50;99.90;;;;;;5061392;28;20291;-91
2023/03/10 08:17:18;;;;;;;10.90;3.37;;;10.40;99.90;;;;;;5060391;28;20169;-92
2023/03/10 08:19:44;;;;;;;8.43;2.27;;;10.40;99.90;;;;;;5036055;28;20655;-91
2023/03/10 08:22:15;;;;;;;7.37;2.17;;;10.40;99.90;;;;;;5055140;28;20173;-90
2023/03/10 08:24:41;;;;;;;10.70;2.93;;;10.30;99.90;;;;;;5055062;28;20170;-90
2023/03/10 08:27:07;;;;;;;8.20;2.53;;;10.40;99.90;;;;;;5045597;28;20190;-91
2023/03/10 08:29:33;;;;;;;9.87;2.10;;;10.30;99.90;;;;;;5063980;28;20168;-90
2023/03/10 08:31:59;;;;;;;7.97;2.73;;;10.30;99.90;;;;;;5059298;28;20317;-91
2023/03/10 08:34:24;;;;;;;10.17;2.70;;;10.20;99.90;;;;;;5056198;28;20690;-90
2023/03/10 08:36:51;;;;;;;7.60;2.47;;;10.20;99.90;;;;;;5061512;28;20173;-92
2023/03/10 08:39:19;;;;;;;7.73;2.53;;;10.30;99.90;;;;;;5043129;28;20181;-90
2023/03/10 08:41:48;;;;;;;6.40;2.83;;;10.20;99.90;;;;;;5036605;28;20253;-90
2023/03/10 08:44:16;;;;;;;8.23;2.60;;;10.20;99.90;;;;;;5045520;28;20276;-91
2023/03/10 08:46:46;;;;;;;6.07;2.20;;;10.10;99.90;;;;;;5048761;28;20188;-89
2023/03/10 08:49:14;;;;;;;6.93;2.47;;;10.10;99.90;;;;;;5049876;28;20170;-90
2023/03/10 08:51:41;;;;;;;8.33;2.90;;;10.20;99.90;;;;;;5047612;28;20181;-93
2023/03/10 08:54:12;;;;;;;6.33;2.20;;;10.20;99.90;;;;;;5062814;28;20161;-92
2023/03/10 08:56:40;;;;;;;7.37;2.30;;;10.20;99.90;;;;;;5050240;28;20207;-91
2023/03/10 08:59:06;;;;;;;7.63;2.33;;;10.10;99.90;;;;;;5061125;28;20212;-90
2023/03/10 09:01:38;;;;;;;8.17;2.13;;;10.40;99.90;;;;;;5063297;28;20203;-91
2023/03/10 09:04:10;;;;;;;7.37;2.83;;;10.20;99.90;;;;;;5047589;28;20160;-90
2023/03/10 09:06:37;;;;;;;6.73;2.40;;;10.20;99.90;;;;;;5070745;28;20173;-91
2023/03/10 09:09:04;;;;;;;5.30;2.17;;;10.20;99.90;;;;;;5065435;28;20193;-90
2023/03/10 09:11:58;;;;;;;7.70;3.33;;;10.30;99.90;;;;;;5047259;28;20196;-92
2023/03/10 09:14:39;;;;;;;6.80;2.50;;;10.30;99.90;;;;;;5049940;28;20185;-91
2023/03/10 09:17:10;;;;;;;5.70;2.50;;;10.30;99.90;;;;;;5046860;28;20200;-91
2023/03/10 09:19:35;;;;;;;4.67;1.80;;;10.30;99.90;;;;;;5048060;28;20177;-90
2023/03/10 09:22:01;;;;;;;7.27;2.40;;;10.30;99.90;;;;;;5037468;28;20196;-91
2023/03/10 09:24:27;;;;;;;9.17;2.90;;;10.30;99.90;;;;;;5053202;28;20192;-91
2023/03/10 09:26:54;;;;;;;5.00;2.50;;;10.50;99.90;;;;;;5053136;28;20702;-90
2023/03/10 09:29:21;;;;;;;6.77;3.03;;;10.30;99.90;;;;;;5058455;28;20185;-91
2023/03/10 09:31:48;;;;;;;7.43;2.67;;;10.30;99.90;;;;;;5054407;28;20185;-91
2023/03/10 09:34:13;;;;;;;6.27;2.57;;;10.30;99.90;;;;;;5045334;28;20184;-90
2023/03/10 09:36:40;;;;;;;4.60;2.67;;;10.40;99.90;;;;;;5057597;28;20181;-89
2023/03/10 09:39:07;;;;;;;6.43;3.40;;;10.30;99.90;;;;;;5042662;28;20201;-89
2023/03/10 09:42:07;;;;;;;8.73;3.27;;;10.60;99.90;;;;;;5059973;28;20235;-91
2023/03/10 09:44:53;;;;;;;7.50;4.10;;;10.30;99.90;;;;;;5051600;28;20201;-91
2023/03/10 09:48:00;;;;;;;4.63;2.87;;;10.40;99.90;;;;;;5055829;28;20188;-89
2023/03/10 09:50:47;;;;;;;5.57;2.67;;;10.50;99.90;;;;;;5047831;28;20219;-89
2023/03/10 09:53:38;;;;;;;5.10;2.60;;;10.50;99.90;;;;;;5043309;28;20173;-90
2023/03/10 09:56:26;;;;;;;6.43;2.63;;;10.50;99.90;;;;;;5047426;28;20698;-91
2023/03/10 09:58:58;;;;;;;6.23;2.70;;;10.50;99.90;;;;;;5049478;28;20169;-90
2023/03/10 10:01:27;;;;;;;5.30;2.60;;;10.60;99.90;;;;;;5052566;28;20193;-91
2023/03/10 10:04:11;;;;;;;5.47;2.77;;;10.70;99.90;;;;;;5055282;28;20199;-92
2023/03/10 10:06:41;;;;;;;8.77;3.93;;;10.70;99.90;;;;;;5047625;28;20178;-90
2023/03/10 10:09:33;;;;;;;5.53;3.50;;;10.80;99.90;;;;;;5051829;28;20193;-92
2023/03/10 10:12:13;;;;;;;4.33;2.60;;;10.70;99.90;;;;;;5010109;28;20268;-91
2023/03/10 10:14:41;;;;;;;5.40;2.93;;;10.80;99.90;;;;;;5050547;28;20211;-91
2023/03/10 10:17:32;;;;;;;7.27;2.97;;;10.80;99.90;;;;;;5050161;28;20216;-93
2023/03/10 10:19:58;;;;;;;5.30;2.47;;;10.90;99.90;;;;;;5049873;28;20272;-90
2023/03/10 10:22:29;;;;;;;6.70;2.73;;;10.80;99.90;;;;;;5044784;28;20200;-91
2023/03/10 10:25:02;;;;;;;4.40;2.70;;;10.90;99.90;;;;;;5043918;28;20217;-94
2023/03/10 10:27:30;;;;;;;5.57;2.80;;;10.90;99.90;;;;;;5043911;28;20191;-92
2023/03/10 10:29:57;;;;;;;5.07;2.53;;;11.00;99.90;;;;;;5054982;28;20173;-90
2023/03/10 10:32:24;;;;;;;5.47;2.37;;;11.00;99.90;;;;;;5051317;28;20181;-93
2023/03/10 10:35:13;;;;;;;3.97;2.20;;;11.00;99.90;;;;;;5060545;28;20256;-88
2023/03/10 10:37:41;;;;;;;3.40;2.13;;;11.00;99.90;;;;;;5073427;28;20220;-89
2023/03/10 10:40:25;;;;;;;2.50;1.80;;;11.00;99.90;;;;;;5073399;28;20237;-89
2023/03/10 10:42:53;;;;;;;2.10;1.60;;;11.00;99.90;;;;;;5067814;28;20248;-92
2023/03/10 10:45:29;;;;;;;2.83;1.87;;;11.20;99.90;;;;;;5061050;28;20263;-90
2023/03/10 10:47:56;;;;;;;5.27;2.30;;;11.00;99.90;;;;;;5063098;28;20177;-87
2023/03/10 10:50:34;;;;;;;4.10;2.73;;;11.00;99.90;;;;;;5037671;28;20181;-88
2023/03/10 10:53:23;;;;;;;4.07;2.40;;;11.10;99.90;;;;;;5057272;28;20220;-92
2023/03/10 10:56:15;;;;;;;4.00;2.33;;;11.30;99.90;;;;;;5044018;28;20212;-88
2023/03/10 10:59:01;;;;;;;2.57;2.10;;;11.20;99.90;;;;;;5044091;28;20161;-89
2023/03/10 11:01:46;;;;;;;3.77;2.23;;;11.20;99.90;;;;;;5041355;28;20220;-90
2023/03/10 11:04:12;;;;;;;3.87;2.30;;;11.20;99.90;;;;;;5042872;28;20180;-91
2023/03/10 11:06:38;;;;;;;2.50;1.97;;;11.20;99.90;;;;;;5027136;28;20181;-92
2023/03/10 11:09:08;;;;;;;3.60;2.30;;;11.30;99.90;;;;;;5044871;28;20181;-92
2023/03/10 11:11:46;;;;;;;4.03;2.43;;;11.20;99.90;;;;;;5059321;28;20162;-91
2023/03/10 11:14:20;;;;;;;4.70;2.67;;;11.30;99.90;;;;;;5059479;28;20172;-89
2023/03/10 11:17:54;;;;;;;5.40;2.70;;;11.40;99.90;;;;;;5059231;28;20189;-90
2023/03/10 11:20:56;;;;;;;3.73;2.83;;;11.50;99.90;;;;;;4978213;28;20215;-89
2023/03/10 11:23:37;;;;;;;4.00;2.90;;;11.50;99.90;;;;;;4974069;28;20163;-91
2023/03/10 11:26:16;;;;;;;3.57;2.63;;;11.70;99.90;;;;;;5039074;28;20676;-91
2023/03/10 11:29:12;;;;;;;3.27;2.30;;;11.50;99.90;;;;;;5043248;28;20193;-91
2023/03/10 11:31:59;;;;;;;3.77;2.00;;;11.40;99.90;;;;;;5042022;28;20211;-91
2023/03/10 11:34:33;;;;;;;1.93;1.33;;;11.20;99.90;;;;;;5064006;28;20181;-92
2023/03/10 11:37:24;;;;;;;4.83;1.67;;;10.80;99.90;;;;;;5049734;28;20240;-92
2023/03/10 11:40:27;;;;;;;3.47;1.50;;;10.50;99.90;;;;;;5064209;28;20233;-89
2023/03/10 11:43:34;;;;;;;3.37;1.20;;;10.40;99.90;;;;;;5062019;28;20173;-91
2023/03/10 11:46:45;;;;;;;2.40;1.50;;;10.00;99.90;;;;;;5039421;28;20165;-90
2023/03/10 11:49:15;;;;;;;3.57;1.60;;;9.90;99.90;;;;;;5065217;28;20169;-90
2023/03/10 11:51:51;;;;;;;5.03;2.20;;;10.00;99.90;;;;;;5056678;28;20227;-91
2023/03/10 11:54:46;;;;;;;3.60;2.03;;;9.80;99.90;;;;;;5049297;28;20166;-91
2023/03/10 11:57:20;;;;;;;3.60;1.83;;;9.80;99.90;;;;;;5029020;28;20189;-90
2023/03/10 11:59:58;;;;;;;3.83;2.40;;;9.70;99.90;;;;;;5046654;28;20188;-91
2023/03/10 12:02:46;;;;;;;6.20;2.10;;;9.70;99.90;;;;;;5049407;28;20188;-91
2023/03/10 12:05:25;;;;;;;3.83;1.90;;;9.60;99.90;;;;;;5059809;28;20186;-91
2023/03/10 12:07:56;;;;;;;3.77;1.90;;;9.40;99.90;;;;;;5077149;23;20252;-90
2023/03/10 12:13:04;;;;;;;3.27;1.70;;;9.40;99.90;;;;;;5036801;28;20236;-91
2023/03/10 12:15:38;;;;;;;3.67;1.70;;;9.40;99.90;;;;;;5030233;28;20237;-91
2023/03/10 12:18:06;;;;;;;3.67;1.80;;;9.30;99.90;;;;;;5063687;28;20710;-91
2023/03/10 12:20:36;;;;;;;3.10;1.67;;;9.30;99.90;;;;;;5033510;28;20175;-92
2023/03/10 12:23:23;;;;;;;3.53;1.73;;;9.30;99.90;;;;;;5023672;28;20190;-91
2023/03/10 12:25:50;;;;;;;2.47;1.47;;;9.30;99.90;;;;;;5041709;28;20189;-91
2023/03/10 12:28:19;;;;;;;2.97;1.70;;;9.10;99.90;;;;;;5028316;28;20185;-90
2023/03/10 12:31:31;;;;;;;2.60;1.60;;;9.30;99.90;;;;;;5046269;28;20170;-91
2023/03/10 12:34:23;;;;;;;3.10;1.60;;;9.30;99.90;;;;;;5028687;28;20178;-92
2023/03/10 12:37:10;;;;;;;2.50;1.50;;;9.20;99.90;;;;;;5028625;28;20198;-92
2023/03/10 12:39:43;;;;;;;2.10;1.40;;;9.20;99.90;;;;;;5033367;28;20177;-91
2023/03/10 12:42:33;;;;;;;3.57;1.40;;;9.20;99.90;;;;;;5039682;28;20202;-90
2023/03/10 12:45:28;;;;;;;2.50;1.50;;;9.20;99.90;;;;;;5041766;28;20182;-92
2023/03/10 12:48:06;;;;;;;2.70;1.80;;;9.20;99.90;;;;;;5021622;28;20170;-92
2023/03/10 12:50:50;;;;;;;3.37;1.60;;;9.20;99.90;;;;;;5020620;28;20173;-90
2023/03/10 12:53:43;;;;;;;3.77;2.10;;;9.20;99.90;;;;;;5031160;28;20185;-91
2023/03/10 12:56:11;;;;;;;3.33;1.70;;;9.10;99.90;;;;;;5038298;28;20213;-91
2023/03/10 12:58:58;;;;;;;1.90;1.67;;;9.20;99.90;;;;;;5037001;28;20185;-90
2023/03/10 13:01:34;;;;;;;2.07;1.50;;;9.10;99.90;;;;;;5044773;28;20269;-91
2023/03/10 13:04:05;;;;;;;2.47;1.40;;;9.20;99.90;;;;;;5025736;28;20220;-91
2023/03/10 13:06:39;;;;;;;2.27;1.17;;;9.00;99.90;;;;;;5042047;28;20246;-92
2023/03/10 13:09:21;;;;;;;2.13;1.40;;;8.90;99.90;;;;;;5041679;28;20192;-91